Impacts TAF Board
For situational awareness. Not to be used for flight planning purposes.
IDs:

KMDW - Chicago/Midway Intl, IL, US

Issued at 0524 UTC 19 Aug 2019
Updated at 0629 UTC 19 Aug 2019
Potential Impact None Slight Moderate High
Time0553Z 19/07Z 19/08Z 19/09Z 19/10Z 19/11Z 19/12Z 19/13Z 19/14Z 19/15Z 19/16Z 19/17Z 19/18Z 19/19Z>>
Type OBS PRVL PRVL PRVL PRVL PRVL PRVL PRVL PRVL PRVL PRVL PRVL PRVL PRVL
VIS 10 >6 >6 >6 >6 >6 >6 >6 >6 >6 >6 >6 >6 >6
CIG 80 70 70 70 70 70 25 25 25 25 25 -- -- --
Cover BKN BKN BKN BKN BKN BKN BKN BKN BKN BKN BKN SCT SCT SCT
FltCat VFR VFR VFR VFR VFR VFR MVFR MVFR MVFR MVFR MVFR VFR VFR VFR
WX -- -- -- -- -- -- -- -- -- -- -- -- -- --
WDir 190 290 290 290 290 290 10 10 10 10 10 80 80 80
WSpd 4 3 3 3 3 3 5 5 5 5 5 6 6 6
WGst -- -- -- -- -- -- -- -- -- -- -- -- -- --
Raw TAF
KMDW 190524Z 1906/2012 29003KT P6SM BKN070
  FM191200 01005KT P6SM BKN025
  FM191700 08006KT P6SM SCT050


Raw METAR
KMDW 190553Z 19004KT 10SM BKN080 23/20 A2993 RMK AO2 SLP126 T02280200 10272 20222 402890206 51009
KMDW 190453Z 19003KT 10SM CLR 23/19 A2993 RMK AO2 SLP125 T02330189
KMDW 190353Z 00000KT 10SM CLR 23/19 A2991 RMK AO2 SLP121 T02330189

METAR Board
Radar Display
Forecast Discussion
For situational awareness. Not to be used for flight planning purposes.